Time;durP1;ratioP1;P1;durP2;ratioP2;P2;SDS_P1;SDS_P2;PMS_P1;PMS_P2;Temp;Humidity;BMP_temperature;BMP_pressure;BME280_temperature;BME280_humidity;BME280_pressure;Samples;Min_cycle;Max_cycle;Signal;HPM_P1;HPM_P2
2021/01/18 00:00:16;;;;;;;54.20;28.08;;;3.40;50.80;;;;;;5011403;28;20113;-72
2021/01/18 00:02:42;;;;;;;46.42;24.83;;;3.40;50.80;;;;;;5012787;28;20025;-72
2021/01/18 00:05:09;;;;;;;44.47;24.10;;;3.40;50.70;;;;;;5013537;28;20041;-72
2021/01/18 00:07:48;;;;;;;44.13;24.55;;;3.40;50.60;;;;;;5015059;28;20053;-72
2021/01/18 00:10:23;;;;;;;46.33;24.00;;;3.40;50.70;;;;;;5013819;28;20034;-72
2021/01/18 00:12:54;;;;;;;47.50;25.88;;;3.40;50.80;;;;;;5010719;28;20483;-72
2021/01/18 00:15:23;;;;;;;45.75;25.67;;;3.40;50.70;;;;;;5013072;28;20026;-72
2021/01/18 00:17:49;;;;;;;49.85;27.42;;;3.40;50.70;;;;;;5014563;28;20117;-72
2021/01/18 00:20:17;;;;;;;41.60;23.27;;;3.40;50.80;;;;;;5012794;28;20057;-73
2021/01/18 00:22:44;;;;;;;41.33;23.60;;;3.40;51.40;;;;;;5014259;28;20104;-72
2021/01/18 00:25:12;;;;;;;45.15;24.10;;;3.50;51.50;;;;;;5014312;28;20033;-73
2021/01/18 00:27:39;;;;;;;42.33;23.45;;;3.50;50.90;;;;;;5014196;28;20479;-73
2021/01/18 00:30:10;;;;;;;47.22;26.08;;;3.50;50.90;;;;;;5014155;28;20021;-73
2021/01/18 00:32:38;;;;;;;43.33;24.23;;;3.50;51.00;;;;;;5014150;28;20014;-73
2021/01/18 00:35:05;;;;;;;47.13;25.60;;;3.50;51.00;;;;;;5013494;28;20022;-73
2021/01/18 00:37:31;;;;;;;41.05;22.63;;;3.60;51.00;;;;;;5014046;28;20037;-73
2021/01/18 00:39:56;;;;;;;41.95;22.67;;;3.60;50.90;;;;;;5013853;28;20104;-73
2021/01/18 00:42:22;;;;;;;42.80;22.30;;;3.60;50.90;;;;;;5012314;28;20528;-73
2021/01/18 00:44:48;;;;;;;43.50;22.98;;;3.60;50.80;;;;;;5014188;28;20460;-73
2021/01/18 00:47:14;;;;;;;40.13;22.10;;;3.70;50.90;;;;;;5013877;28;20415;-73
2021/01/18 00:49:40;;;;;;;36.22;20.42;;;3.70;50.90;;;;;;5013921;28;20494;-73
2021/01/18 00:52:06;;;;;;;41.08;23.17;;;3.70;50.90;;;;;;5013854;28;20026;-73
2021/01/18 00:54:32;;;;;;;40.95;22.75;;;3.70;50.90;;;;;;5013066;28;20030;-73
2021/01/18 00:56:58;;;;;;;39.53;21.67;;;3.80;50.80;;;;;;5013976;28;20468;-73
2021/01/18 00:59:24;;;;;;;33.50;18.95;;;3.80;50.70;;;;;;5012996;28;20037;-73
2021/01/18 01:01:49;;;;;;;34.70;19.52;;;3.80;50.60;;;;;;5012248;28;20080;-73
2021/01/18 01:04:15;;;;;;;38.67;21.05;;;3.80;50.60;;;;;;5013319;28;20025;-73
2021/01/18 01:06:41;;;;;;;36.63;20.45;;;3.80;50.50;;;;;;5012453;28;20076;-72
2021/01/18 01:09:06;;;;;;;38.03;20.60;;;3.80;50.60;;;;;;5013853;28;20026;-73
2021/01/18 01:11:32;;;;;;;35.50;20.00;;;3.80;50.40;;;;;;5013906;28;20480;-72
2021/01/18 01:13:58;;;;;;;35.55;19.55;;;3.80;50.40;;;;;;4999041;28;20026;-73
2021/01/18 01:16:24;;;;;;;39.20;21.42;;;3.90;51.00;;;;;;4993042;28;20027;-73
2021/01/18 01:18:50;;;;;;;34.58;19.20;;;3.80;50.50;;;;;;4994064;28;20034;-73
2021/01/18 01:21:16;;;;;;;34.05;19.02;;;3.90;50.50;;;;;;4996049;28;20069;-73
2021/01/18 01:23:42;;;;;;;35.58;18.92;;;3.90;50.50;;;;;;5012444;28;20018;-73
2021/01/18 01:26:07;;;;;;;34.50;19.58;;;3.90;50.60;;;;;;5012134;28;20108;-73
2021/01/18 01:28:33;;;;;;;34.47;19.77;;;3.90;50.60;;;;;;5010514;28;20036;-73
2021/01/18 01:30:59;;;;;;;32.97;18.92;;;3.90;50.50;;;;;;5013630;28;20101;-72
2021/01/18 01:33:26;;;;;;;31.60;17.35;;;3.90;50.50;;;;;;5014402;28;20053;-74
2021/01/18 01:35:51;;;;;;;31.65;17.33;;;3.90;50.40;;;;;;5012751;28;20475;-74
2021/01/18 01:38:17;;;;;;;29.85;17.20;;;3.90;50.30;;;;;;5012735;28;20064;-73
2021/01/18 01:40:43;;;;;;;35.40;19.10;;;3.90;50.30;;;;;;5015357;28;20026;-73
2021/01/18 01:43:08;;;;;;;32.03;18.38;;;3.80;50.20;;;;;;5017385;28;20080;-73
2021/01/18 01:45:34;;;;;;;30.38;16.73;;;3.80;50.80;;;;;;5017757;28;20530;-74
2021/01/18 01:48:00;;;;;;;30.98;18.05;;;3.80;50.10;;;;;;5016054;28;20053;-73
2021/01/18 01:50:32;;;;;;;27.45;15.27;;;3.80;50.10;;;;;;5017440;28;20024;-73
2021/01/18 01:53:23;;;;;;;31.00;17.65;;;3.80;50.20;;;;;;5017697;28;20454;-71
2021/01/18 01:55:50;;;;;;;27.60;17.00;;;3.70;50.10;;;;;;5017521;28;20426;-71
2021/01/18 01:58:16;;;;;;;22.08;13.10;;;3.70;50.70;;;;;;5015768;28;20490;-71
2021/01/18 02:00:42;;;;;;;24.55;14.52;;;3.70;50.20;;;;;;5017788;28;20018;-71
2021/01/18 02:03:09;;;;;;;29.95;16.15;;;3.70;50.20;;;;;;5016666;28;20483;-71
2021/01/18 02:05:36;;;;;;;29.42;16.05;;;3.70;50.20;;;;;;5032469;28;20025;-71
2021/01/18 02:08:03;;;;;;;27.45;14.85;;;3.70;50.30;;;;;;5016721;28;20022;-71
2021/01/18 02:10:30;;;;;;;24.95;15.68;;;3.80;50.40;;;;;;5016984;28;20100;-71
2021/01/18 02:12:59;;;;;;;29.10;16.60;;;3.70;50.50;;;;;;5016688;28;20164;-71
2021/01/18 02:15:25;;;;;;;26.45;15.00;;;3.80;50.60;;;;;;5016544;28;20026;-71
2021/01/18 02:18:37;;;;;;;27.33;16.08;;;3.80;50.60;;;;;;5016537;28;20030;-72
2021/01/18 02:21:24;;;;;;;27.80;15.52;;;3.80;50.60;;;;;;5016063;28;20046;-72
2021/01/18 02:24:24;;;;;;;27.08;15.45;;;3.80;50.50;;;;;;5016414;28;20025;-72
2021/01/18 02:27:11;;;;;;;24.05;13.77;;;3.90;50.40;;;;;;5031621;28;20498;-72
2021/01/18 02:30:20;;;;;;;25.25;13.75;;;3.90;50.40;;;;;;5016378;28;20444;-72
2021/01/18 02:32:52;;;;;;;24.77;13.82;;;3.90;50.40;;;;;;5016609;28;20021;-72
2021/01/18 02:35:36;;;;;;;27.40;15.98;;;3.90;50.40;;;;;;5016288;28;20093;-72
2021/01/18 02:38:17;;;;;;;25.47;14.80;;;3.80;50.50;;;;;;5017452;28;20022;-72
2021/01/18 02:41:04;;;;;;;22.90;13.52;;;3.80;50.50;;;;;;5016284;28;20284;-73
2021/01/18 02:43:48;;;;;;;26.30;15.20;;;3.90;50.60;;;;;;5031273;28;20021;-73
2021/01/18 02:46:16;;;;;;;26.52;14.90;;;3.80;50.70;;;;;;5016038;28;20518;-72
2021/01/18 02:48:42;;;;;;;27.48;15.80;;;3.90;50.90;;;;;;5015912;28;20033;-72
2021/01/18 02:51:10;;;;;;;26.17;15.18;;;3.90;51.50;;;;;;5014948;28;20383;-72
2021/01/18 02:53:38;;;;;;;32.05;17.67;;;3.90;51.60;;;;;;5015739;28;20030;-73
2021/01/18 02:56:06;;;;;;;30.60;16.05;;;3.90;51.90;;;;;;5015786;28;20506;-73
2021/01/18 02:58:35;;;;;;;34.45;17.77;;;3.80;52.00;;;;;;5016030;28;20175;-73
2021/01/18 03:01:19;;;;;;;31.65;18.70;;;3.80;52.20;;;;;;5015616;28;20029;-73
2021/01/18 03:04:09;;;;;;;27.42;15.00;;;3.70;52.60;;;;;;5015564;28;20046;-73
2021/01/18 03:06:44;;;;;;;40.70;20.42;;;3.70;52.60;;;;;;5015640;28;20477;-73
2021/01/18 03:09:18;;;;;;;30.75;16.38;;;3.70;52.80;;;;;;5015585;28;20026;-73
2021/01/18 03:11:49;;;;;;;30.38;17.98;;;3.60;52.90;;;;;;5015775;28;20061;-73
2021/01/18 03:14:43;;;;;;;30.70;17.60;;;3.60;53.30;;;;;;5015450;28;20487;-72
2021/01/18 03:17:13;;;;;;;37.27;18.93;;;3.50;53.60;;;;;;5015493;28;20034;-72
2021/01/18 03:19:44;;;;;;;35.22;18.92;;;3.50;53.60;;;;;;5015450;28;20419;-72
2021/01/18 03:22:10;;;;;;;37.65;20.38;;;3.50;53.90;;;;;;5013167;28;20033;-72
2021/01/18 03:24:36;;;;;;;42.25;21.65;;;3.40;54.00;;;;;;5015108;28;20022;-72
2021/01/18 03:27:05;;;;;;;34.47;19.60;;;3.40;54.10;;;;;;5014353;28;20038;-72
2021/01/18 03:29:31;;;;;;;39.85;21.52;;;3.30;54.10;;;;;;5013150;28;20092;-72
2021/01/18 03:31:57;;;;;;;37.05;18.88;;;3.30;54.20;;;;;;5014723;28;20403;-72
2021/01/18 03:34:22;;;;;;;37.50;20.33;;;3.30;54.40;;;;;;5015358;28;20026;-72
2021/01/18 03:36:49;;;;;;;35.47;20.15;;;3.30;54.50;;;;;;5013771;28;20037;-72
2021/01/18 03:39:14;;;;;;;32.78;18.33;;;3.30;54.50;;;;;;5013768;28;20029;-73
2021/01/18 03:41:40;;;;;;;36.67;20.33;;;3.30;54.60;;;;;;5014901;28;20097;-72
2021/01/18 03:44:06;;;;;;;37.20;20.77;;;3.20;54.70;;;;;;5013621;28;20467;-72
2021/01/18 03:46:31;;;;;;;39.20;21.75;;;3.30;54.80;;;;;;5014873;28;20495;-72
2021/01/18 03:48:57;;;;;;;37.05;20.95;;;3.30;54.90;;;;;;5014857;28;20026;-72
2021/01/18 03:51:30;;;;;;;41.00;21.75;;;3.20;54.90;;;;;;5013344;28;20472;-72
2021/01/18 03:53:57;;;;;;;33.47;18.30;;;3.20;55.10;;;;;;5014576;28;20059;-72
2021/01/18 03:56:23;;;;;;;34.03;18.98;;;3.30;55.10;;;;;;5014872;28;20037;-72
2021/01/18 03:58:48;;;;;;;35.97;20.35;;;3.30;55.20;;;;;;5014613;28;20026;-72
2021/01/18 04:01:14;;;;;;;42.40;22.70;;;3.30;55.30;;;;;;5014383;28;20379;-72
2021/01/18 04:03:41;;;;;;;45.25;23.98;;;3.20;55.40;;;;;;5014405;28;20053;-72
2021/01/18 04:06:07;;;;;;;38.05;21.40;;;3.20;55.50;;;;;;5014807;28;20026;-72
2021/01/18 04:08:32;;;;;;;44.63;23.10;;;3.20;55.50;;;;;;5014420;28;20049;-72
2021/01/18 04:10:58;;;;;;;45.92;23.95;;;3.20;55.60;;;;;;5013156;28;20026;-72
2021/01/18 04:13:24;;;;;;;37.65;21.15;;;3.20;55.60;;;;;;5014412;28;20030;-72
2021/01/18 04:15:49;;;;;;;44.03;24.02;;;3.10;55.60;;;;;;5014325;28;20096;-72
2021/01/18 04:18:15;;;;;;;50.60;26.10;;;3.10;55.70;;;;;;5014259;28;20427;-72
2021/01/18 04:20:41;;;;;;;42.53;22.20;;;3.10;55.70;;;;;;5014057;28;20121;-72
2021/01/18 04:23:06;;;;;;;43.30;23.50;;;3.10;55.80;;;;;;5014315;28;20018;-72
2021/01/18 04:25:32;;;;;;;45.45;24.55;;;3.10;55.80;;;;;;5014449;28;20049;-72
2021/01/18 04:28:00;;;;;;;51.47;26.45;;;3.10;55.90;;;;;;5014136;28;20018;-72
2021/01/18 04:30:28;;;;;;;50.97;26.10;;;3.00;56.00;;;;;;5014116;28;20026;-72
2021/01/18 04:33:05;;;;;;;52.65;27.70;;;3.00;56.30;;;;;;5014017;28;20105;-72
2021/01/18 04:35:34;;;;;;;50.72;26.10;;;2.90;56.30;;;;;;5012774;28;20479;-72
2021/01/18 04:38:00;;;;;;;46.05;25.58;;;2.90;56.50;;;;;;5013940;28;20032;-72
2021/01/18 04:40:29;;;;;;;47.38;25.67;;;2.90;56.60;;;;;;5013891;28;20458;-72
2021/01/18 04:42:55;;;;;;;50.88;25.17;;;2.90;56.90;;;;;;5014409;28;20026;-72
2021/01/18 04:45:23;;;;;;;51.08;27.70;;;2.90;56.90;;;;;;5014182;28;20029;-72
2021/01/18 04:47:52;;;;;;;43.88;23.95;;;2.80;57.00;;;;;;5013797;28;20026;-72
2021/01/18 04:50:21;;;;;;;57.10;23.80;;;2.80;57.00;;;;;;5012423;28;20525;-72
2021/01/18 04:52:52;;;;;;;49.08;24.02;;;2.80;57.20;;;;;;5013767;28;20033;-72
2021/01/18 04:55:42;;;;;;;46.13;26.20;;;2.90;57.40;;;;;;5013960;28;20475;-72
2021/01/18 04:58:09;;;;;;;46.58;23.58;;;2.90;57.50;;;;;;5013710;28;20479;-72
2021/01/18 05:00:46;;;;;;;52.22;26.77;;;2.90;57.50;;;;;;5013544;28;20018;-72
2021/01/18 05:03:14;;;;;;;38.45;21.73;;;2.90;57.60;;;;;;5013905;28;20018;-72
2021/01/18 05:05:52;;;;;;;48.97;24.08;;;2.80;57.50;;;;;;5028623;28;20018;-73
2021/01/18 05:08:36;;;;;;;44.55;24.20;;;2.90;57.70;;;;;;5013583;28;20480;-72
2021/01/18 05:11:02;;;;;;;36.95;19.75;;;2.80;57.80;;;;;;5013865;28;20065;-72
2021/01/18 05:13:31;;;;;;;37.53;20.58;;;2.80;57.70;;;;;;5013603;28;20060;-72
2021/01/18 05:15:59;;;;;;;38.65;21.38;;;2.80;57.80;;;;;;5016127;28;20040;-72
2021/01/18 05:18:33;;;;;;;44.35;22.20;;;2.80;57.80;;;;;;5016346;28;20033;-72
2021/01/18 05:21:01;;;;;;;38.63;21.00;;;2.80;57.80;;;;;;5017344;28;20124;-73
2021/01/18 05:23:27;;;;;;;31.10;17.83;;;2.80;57.70;;;;;;5014859;28;20026;-72
2021/01/18 05:26:18;;;;;;;36.40;20.30;;;2.80;57.70;;;;;;5029073;28;20025;-72
2021/01/18 05:28:45;;;;;;;45.53;24.00;;;2.90;57.90;;;;;;5033188;28;20033;-73
2021/01/18 05:31:30;;;;;;;43.20;21.55;;;2.90;58.00;;;;;;5016818;28;20101;-72
2021/01/18 05:34:03;;;;;;;;;;;2.80;58.10;;;;;;5016581;28;20408;-72
2021/01/18 05:36:41;;;;;;;40.83;21.77;;;2.80;57.40;;;;;;5016068;28;19905;-72
2021/01/18 05:39:20;;;;;;;44.92;21.98;;;2.80;57.80;;;;;;5017312;28;20084;-72
2021/01/18 05:41:49;;;;;;;44.45;23.13;;;2.80;57.90;;;;;;5026638;28;20025;-73
2021/01/18 05:44:16;;;;;;;47.00;26.00;;;2.80;58.20;;;;;;5052366;28;20017;-73
2021/01/18 05:46:44;;;;;;;46.25;24.25;;;2.70;58.30;;;;;;5036886;28;20022;-73
2021/01/18 05:49:09;;;;;;;49.60;25.63;;;2.70;58.60;;;;;;5036932;28;20021;-73
2021/01/18 05:51:36;;;;;;;46.30;25.10;;;2.70;58.70;;;;;;5052127;28;20032;-73
2021/01/18 05:54:03;;;;;;;48.80;26.98;;;2.70;58.90;;;;;;5036845;28;20032;-73
2021/01/18 05:56:39;;;;;;;47.03;25.13;;;2.70;58.90;;;;;;5036718;28;20478;-72
2021/01/18 05:59:19;;;;;;;46.45;25.65;;;2.70;59.00;;;;;;5023296;28;20108;-73
2021/01/18 06:01:46;;;;;;;56.40;26.08;;;2.70;59.00;;;;;;5016668;28;20022;-73
2021/01/18 06:04:30;;;;;;;48.20;26.95;;;2.70;59.00;;;;;;5017358;28;20467;-73
2021/01/18 06:07:00;;;;;;;;;;;2.70;59.10;;;;;;5017173;28;20041;-72
2021/01/18 06:09:46;;;;;;;50.30;27.13;;;2.70;58.50;;;;;;5031741;28;19944;-72
2021/01/18 06:12:25;;;;;;;48.95;26.67;;;2.70;59.10;;;;;;5019988;28;20029;-72
2021/01/18 06:15:07;;;;;;;55.88;28.80;;;2.70;59.30;;;;;;5035088;28;20043;-72
2021/01/18 06:17:35;;;;;;;48.88;24.80;;;2.70;59.50;;;;;;5033015;28;20501;-72
2021/01/18 06:20:02;;;;;;;50.72;27.42;;;2.80;59.50;;;;;;5016460;28;20037;-73
2021/01/18 06:22:29;;;;;;;48.88;27.13;;;2.80;59.60;;;;;;5016611;28;20026;-72
2021/01/18 06:25:10;;;;;;;48.80;26.52;;;2.80;59.70;;;;;;5015140;28;20033;-72
2021/01/18 06:27:35;;;;;;;52.78;27.63;;;2.80;59.70;;;;;;5016357;28;20014;-74
2021/01/18 06:30:02;;;;;;;47.28;26.10;;;2.80;59.70;;;;;;5016070;28;20099;-73
2021/01/18 06:32:30;;;;;;;52.55;28.58;;;2.80;59.70;;;;;;5016113;28;20510;-72
2021/01/18 06:35:00;;;;;;;51.35;28.38;;;2.80;59.70;;;;;;5016095;28;20022;-73
2021/01/18 06:37:34;;;;;;;47.40;25.98;;;2.80;59.80;;;;;;5015920;28;20490;-73
2021/01/18 06:40:01;;;;;;;49.92;26.88;;;2.90;59.80;;;;;;5016261;28;20075;-73
2021/01/18 06:42:28;;;;;;;46.85;26.55;;;2.90;59.70;;;;;;5014648;28;20112;-73
2021/01/18 06:44:55;;;;;;;49.75;26.30;;;2.90;59.70;;;;;;5016010;28;20033;-73
2021/01/18 06:47:33;;;;;;;47.92;26.58;;;2.90;59.80;;;;;;5015741;28;20049;-72
2021/01/18 06:50:02;;;;;;;47.20;26.80;;;3.00;59.80;;;;;;5016030;28;20022;-73
2021/01/18 06:52:33;;;;;;;48.35;27.15;;;3.00;59.80;;;;;;5015628;28;20030;-72
2021/01/18 06:55:03;;;;;;;52.95;28.48;;;3.00;59.80;;;;;;5015713;28;20054;-72
2021/01/18 06:57:50;;;;;;;53.10;28.20;;;3.00;59.90;;;;;;5015515;28;20395;-72
2021/01/18 07:00:18;;;;;;;50.53;26.70;;;3.00;59.90;;;;;;5030778;28;20366;-72
2021/01/18 07:02:58;;;;;;;48.55;26.67;;;3.10;59.90;;;;;;5028054;28;20025;-72
2021/01/18 07:05:45;;;;;;;58.90;31.08;;;3.10;60.00;;;;;;5035561;28;20491;-72
2021/01/18 07:08:17;;;;;;;51.67;28.00;;;3.10;60.00;;;;;;5035297;28;20045;-72
2021/01/18 07:10:49;;;;;;;57.95;30.65;;;3.10;60.00;;;;;;5035608;28;20070;-72
2021/01/18 07:13:17;;;;;;;59.55;30.73;;;3.20;59.90;;;;;;5033855;28;20478;-73
2021/01/18 07:15:43;;;;;;;60.85;32.88;;;3.20;60.10;;;;;;5035528;28;20021;-73
2021/01/18 07:18:12;;;;;;;59.42;31.30;;;3.20;60.20;;;;;;5026795;28;20022;-73
2021/01/18 07:20:46;;;;;;;60.05;31.65;;;3.20;60.50;;;;;;5013682;28;20045;-72
2021/01/18 07:23:12;;;;;;;59.53;30.98;;;3.20;60.70;;;;;;5013357;28;20470;-72
2021/01/18 07:25:54;;;;;;;55.63;28.83;;;3.20;60.70;;;;;;5014006;28;20490;-73
2021/01/18 07:28:20;;;;;;;61.88;33.65;;;3.20;60.80;;;;;;5014217;28;20033;-72
2021/01/18 07:30:48;;;;;;;63.22;32.38;;;3.20;60.90;;;;;;5013019;28;20030;-73
2021/01/18 07:33:16;;;;;;;62.78;33.25;;;3.20;61.00;;;;;;5013186;28;20038;-73
2021/01/18 07:35:44;;;;;;;58.35;31.52;;;3.20;61.30;;;;;;5015152;28;20025;-73
2021/01/18 07:38:20;;;;;;;65.63;33.47;;;3.10;61.30;;;;;;5013688;28;20042;-73
2021/01/18 07:41:07;;;;;;;74.55;32.35;;;3.20;61.40;;;;;;4995469;28;20030;-73
2021/01/18 07:43:36;;;;;;;59.08;32.85;;;3.20;61.30;;;;;;4995184;28;20029;-72
2021/01/18 07:46:28;;;;;;;60.70;32.00;;;3.10;61.20;;;;;;4995118;28;20077;-73
2021/01/18 07:48:55;;;;;;;62.55;31.92;;;3.20;61.30;;;;;;4995099;28;20022;-72
2021/01/18 07:51:27;;;;;;;64.03;33.17;;;3.20;61.30;;;;;;5005351;28;20022;-72
2021/01/18 07:53:54;;;;;;;64.82;32.53;;;3.20;61.50;;;;;;5034605;28;20032;-73
2021/01/18 07:56:26;;;;;;;57.13;30.77;;;3.20;61.50;;;;;;5020484;28;20149;-72
2021/01/18 07:59:08;;;;;;;59.00;31.98;;;3.20;61.60;;;;;;5014779;28;20379;-72
2021/01/18 08:01:39;;;;;;;62.75;33.03;;;3.20;61.70;;;;;;5014321;28;20037;-72
2021/01/18 08:04:18;;;;;;;60.50;31.98;;;3.20;61.70;;;;;;5014521;28;20050;-72
2021/01/18 08:07:09;;;;;;;65.78;34.05;;;3.20;61.90;;;;;;5014595;28;20025;-72
2021/01/18 08:09:36;;;;;;;61.25;33.03;;;3.20;61.80;;;;;;5012976;28;20394;-72
2021/01/18 08:12:30;;;;;;;63.58;32.47;;;3.20;61.80;;;;;;5014465;28;20364;-71
2021/01/18 08:14:57;;;;;;;58.95;33.00;;;3.20;61.70;;;;;;5014254;28;20018;-72
2021/01/18 08:17:23;;;;;;;57.65;31.42;;;3.20;61.60;;;;;;5014539;28;20025;-72
2021/01/18 08:20:15;;;;;;;68.00;34.60;;;3.20;61.70;;;;;;5014241;28;20037;-73
2021/01/18 08:22:41;;;;;;;62.13;32.88;;;3.30;61.90;;;;;;5013111;28;20053;-72
2021/01/18 08:25:07;;;;;;;61.50;32.75;;;3.30;61.80;;;;;;5014374;28;20030;-72
2021/01/18 08:27:47;;;;;;;57.08;30.52;;;3.30;61.80;;;;;;5014287;28;20383;-72
2021/01/18 08:30:30;;;;;;;65.60;32.40;;;3.30;61.90;;;;;;5014040;28;20018;-71
2021/01/18 08:33:00;;;;;;;56.30;31.60;;;3.30;61.80;;;;;;5013955;28;20026;-72
2021/01/18 08:35:43;;;;;;;62.58;32.03;;;3.40;61.70;;;;;;5013876;28;20052;-71
2021/01/18 08:38:19;;;;;;;62.28;31.27;;;3.40;61.80;;;;;;5012724;28;20480;-72
2021/01/18 08:40:46;;;;;;;65.35;34.08;;;3.40;61.80;;;;;;5012456;28;20040;-72
2021/01/18 08:43:13;;;;;;;64.07;33.30;;;3.40;61.70;;;;;;5013728;28;20068;-72
2021/01/18 08:45:48;;;;;;;61.08;32.92;;;3.50;61.80;;;;;;5010706;28;20426;-72
2021/01/18 08:48:19;;;;;;;55.60;30.75;;;3.50;61.90;;;;;;5012449;28;20029;-72
2021/01/18 08:50:52;;;;;;;61.00;31.92;;;3.60;61.80;;;;;;5012317;28;20427;-72
2021/01/18 08:53:27;;;;;;;60.05;32.20;;;3.60;61.60;;;;;;5012302;28;20028;-72
2021/01/18 08:55:54;;;;;;;63.17;34.08;;;3.70;61.50;;;;;;5013017;28;20053;-71
2021/01/18 08:58:41;;;;;;;67.88;33.22;;;3.70;61.40;;;;;;5012702;28;20030;-72
2021/01/18 09:01:10;;;;;;;64.07;32.58;;;3.70;61.20;;;;;;5010309;28;20499;-71
2021/01/18 09:03:36;;;;;;;60.60;31.40;;;3.70;61.00;;;;;;5012156;28;20025;-72
2021/01/18 09:06:02;;;;;;;55.97;31.10;;;3.80;61.00;;;;;;5031907;28;20022;-71
2021/01/18 09:08:29;;;;;;;62.55;30.92;;;3.80;61.00;;;;;;5017480;28;20388;-72
2021/01/18 09:11:01;;;;;;;68.50;33.83;;;3.90;60.90;;;;;;5008960;28;20080;-74
2021/01/18 09:13:29;;;;;;;62.20;33.42;;;4.00;60.70;;;;;;5012822;28;20383;-72
2021/01/18 09:15:57;;;;;;;57.83;30.35;;;4.00;60.60;;;;;;5012553;28;20113;-72
2021/01/18 09:18:25;;;;;;;62.13;32.30;;;4.10;60.50;;;;;;5013298;28;20026;-72
2021/01/18 09:20:53;;;;;;;60.25;32.28;;;4.10;60.30;;;;;;5013200;28;20034;-72
2021/01/18 09:23:19;;;;;;;61.33;31.83;;;4.20;60.10;;;;;;5012884;28;20475;-73
2021/01/18 09:25:45;;;;;;;58.63;30.88;;;4.20;60.10;;;;;;5030009;28;20022;-73
2021/01/18 09:28:16;;;;;;;53.92;30.38;;;4.30;60.20;;;;;;5028124;28;20014;-73
2021/01/18 09:30:44;;;;;;;55.72;31.33;;;4.30;59.90;;;;;;5013848;28;20155;-73
2021/01/18 09:33:13;;;;;;;53.15;29.65;;;4.40;59.80;;;;;;5013298;28;20174;-73
2021/01/18 09:35:41;;;;;;;46.75;25.98;;;4.50;59.80;;;;;;5013257;28;20025;-72
2021/01/18 09:38:08;;;;;;;57.45;31.73;;;4.50;59.90;;;;;;5011309;28;20079;-73
2021/01/18 09:40:39;;;;;;;52.00;28.45;;;4.60;59.80;;;;;;5020678;28;20032;-73
2021/01/18 09:43:06;;;;;;;49.90;27.70;;;4.70;59.70;;;;;;5013306;28;20049;-73
2021/01/18 09:45:33;;;;;;;53.38;28.85;;;4.80;59.70;;;;;;5012723;28;20092;-73
2021/01/18 09:48:09;;;;;;;54.42;29.40;;;4.90;59.80;;;;;;5011612;28;20079;-73
2021/01/18 09:50:37;;;;;;;52.03;27.58;;;5.00;59.60;;;;;;5013339;28;20486;-73
2021/01/18 09:53:08;;;;;;;47.78;26.63;;;5.10;60.00;;;;;;5012693;28;20030;-73
2021/01/18 09:55:55;;;;;;;47.90;25.02;;;5.20;59.40;;;;;;5013090;28;20022;-73
2021/01/18 09:58:32;;;;;;;58.28;28.60;;;5.30;59.40;;;;;;5012446;28;20105;-72
2021/01/18 10:01:00;;;;;;;53.95;28.17;;;5.40;59.10;;;;;;5013617;28;20503;-73
2021/01/18 10:03:36;;;;;;;47.88;27.52;;;5.40;58.80;;;;;;5016628;28;20037;-72
2021/01/18 10:06:06;;;;;;;48.53;28.50;;;5.50;58.90;;;;;;5016572;28;20030;-73
2021/01/18 10:08:35;;;;;;;50.63;27.40;;;5.60;58.60;;;;;;5015457;28;20033;-72
2021/01/18 10:11:01;;;;;;;47.83;26.17;;;5.60;58.40;;;;;;5014218;28;20036;-72
2021/01/18 10:13:27;;;;;;;47.25;27.00;;;5.70;58.50;;;;;;5022228;28;20017;-72
2021/01/18 10:15:53;;;;;;;48.58;28.30;;;5.70;58.30;;;;;;5004216;28;20034;-73
2021/01/18 10:18:28;;;;;;;53.03;29.75;;;5.70;58.20;;;;;;5013699;28;20026;-72
2021/01/18 10:20:54;;;;;;;52.42;28.25;;;5.70;58.10;;;;;;5014734;28;20057;-73
2021/01/18 10:23:20;;;;;;;50.60;28.73;;;5.70;58.20;;;;;;5014941;28;20033;-72
2021/01/18 10:25:46;;;;;;;49.55;27.75;;;5.80;58.30;;;;;;5014125;28;20018;-72
2021/01/18 10:28:19;;;;;;;49.55;26.55;;;5.80;58.20;;;;;;5014341;28;20025;-72
2021/01/18 10:30:45;;;;;;;52.80;28.58;;;5.80;58.20;;;;;;5016250;28;20479;-73
2021/01/18 10:33:18;;;;;;;46.00;26.02;;;5.80;57.80;;;;;;5015366;28;20041;-72
2021/01/18 10:35:45;;;;;;;48.05;28.00;;;5.90;57.90;;;;;;5014256;28;20121;-73
2021/01/18 10:38:24;;;;;;;45.13;25.55;;;5.90;57.70;;;;;;5007726;28;20042;-71
2021/01/18 10:41:00;;;;;;;43.97;26.60;;;6.00;58.00;;;;;;5015338;28;20030;-73
2021/01/18 10:43:28;;;;;;;42.03;23.65;;;5.90;57.60;;;;;;5015579;28;20026;-73
2021/01/18 10:45:54;;;;;;;41.45;24.20;;;6.00;57.90;;;;;;5015446;28;20037;-71
2021/01/18 10:48:26;;;;;;;44.90;24.45;;;6.10;58.10;;;;;;5015809;28;20049;-72
2021/01/18 10:50:57;;;;;;;46.53;25.58;;;6.10;58.20;;;;;;5015627;28;20025;-70
2021/01/18 10:53:30;;;;;;;41.47;24.35;;;6.20;58.20;;;;;;5012490;28;20475;-71
2021/01/18 10:56:14;;;;;;;48.70;26.25;;;6.20;58.30;;;;;;4996144;28;20032;-70
2021/01/18 10:58:40;;;;;;;47.22;25.10;;;6.30;58.00;;;;;;4996865;28;20038;-73
2021/01/18 11:01:10;;;;;;;46.10;24.52;;;6.30;57.90;;;;;;5015386;28;20036;-71
2021/01/18 11:03:37;;;;;;;38.13;22.58;;;6.30;57.80;;;;;;5014380;28;20032;-75
2021/01/18 11:06:16;;;;;;;39.15;23.63;;;6.30;57.80;;;;;;5015100;28;20498;-73
2021/01/18 11:08:42;;;;;;;42.13;23.60;;;6.30;57.90;;;;;;5030800;28;20033;-72
2021/01/18 11:11:18;;;;;;;42.30;24.48;;;6.40;58.10;;;;;;5014556;28;20053;-71
2021/01/18 11:13:44;;;;;;;39.13;22.65;;;6.50;58.00;;;;;;5005031;28;20034;-72
2021/01/18 11:16:12;;;;;;;40.08;24.40;;;6.50;58.00;;;;;;5013458;28;20026;-71
2021/01/18 11:18:38;;;;;;;41.05;25.33;;;6.50;57.80;;;;;;5011143;28;20025;-73
2021/01/18 11:21:04;;;;;;;39.03;23.02;;;6.60;57.80;;;;;;5014790;28;20057;-73
2021/01/18 11:23:29;;;;;;;49.33;25.08;;;6.60;57.90;;;;;;5013746;28;20423;-72
2021/01/18 11:25:55;;;;;;;37.17;21.45;;;6.70;58.00;;;;;;5014958;28;20025;-72
2021/01/18 11:28:21;;;;;;;38.80;23.85;;;6.80;58.10;;;;;;5015172;28;20363;-73
2021/01/18 11:30:47;;;;;;;37.97;22.50;;;6.90;57.90;;;;;;5015311;28;20067;-71
2021/01/18 11:33:13;;;;;;;38.90;22.67;;;6.90;57.50;;;;;;5008142;28;20097;-72
2021/01/18 11:35:41;;;;;;;36.50;21.50;;;6.90;57.50;;;;;;5014577;28;20113;-74
2021/01/18 11:38:08;;;;;;;36.97;21.85;;;7.00;57.80;;;;;;5012895;28;20391;-72
2021/01/18 11:40:34;;;;;;;37.00;22.50;;;7.00;57.70;;;;;;5013556;28;20034;-73
2021/01/18 11:43:00;;;;;;;37.10;21.83;;;7.00;57.40;;;;;;5014538;28;20022;-73
2021/01/18 11:45:26;;;;;;;34.30;20.70;;;7.10;57.30;;;;;;5013561;28;20037;-73
2021/01/18 11:47:52;;;;;;;36.50;21.42;;;7.10;57.30;;;;;;5014453;28;20021;-72
2021/01/18 11:50:18;;;;;;;34.33;19.70;;;7.10;57.20;;;;;;5014120;28;20097;-72
2021/01/18 11:52:49;;;;;;;31.95;18.90;;;7.10;57.40;;;;;;5014286;28;20026;-70
2021/01/18 11:55:16;;;;;;;35.30;21.55;;;7.00;57.40;;;;;;5013915;28;20034;-71
2021/01/18 11:57:49;;;;;;;33.53;20.60;;;7.00;57.40;;;;;;5014123;28;20053;-72
2021/01/18 12:00:35;;;;;;;31.60;18.83;;;7.00;57.60;;;;;;5029324;28;20022;-72
2021/01/18 12:03:01;;;;;;;29.77;17.13;;;7.00;57.80;;;;;;5013216;28;20045;-71
2021/01/18 12:05:28;;;;;;;28.80;17.35;;;7.00;58.00;;;;;;5014540;28;20021;-71
2021/01/18 12:08:00;;;;;;;28.67;16.15;;;7.10;58.30;;;;;;5013107;28;20376;-71
2021/01/18 12:10:34;;;;;;;27.02;16.58;;;7.10;58.30;;;;;;5014412;28;20025;-72
2021/01/18 12:13:01;;;;;;;25.60;15.00;;;7.10;58.20;;;;;;5014300;28;20403;-71
2021/01/18 12:15:27;;;;;;;28.48;15.32;;;7.20;58.00;;;;;;5014210;28;20010;-75
2021/01/18 12:17:53;;;;;;;26.48;16.50;;;7.10;58.00;;;;;;5014644;28;20028;-71
2021/01/18 12:20:20;;;;;;;24.90;15.35;;;7.10;58.20;;;;;;5014150;28;20034;-72
2021/01/18 12:22:47;;;;;;;29.73;17.95;;;7.10;58.30;;;;;;5027582;28;20479;-70
2021/01/18 12:25:13;;;;;;;26.25;16.08;;;7.10;58.80;;;;;;5029147;28;20076;-71
2021/01/18 12:27:39;;;;;;;27.48;16.88;;;7.10;58.30;;;;;;5014147;28;20033;-72
2021/01/18 12:30:08;;;;;;;26.27;15.98;;;7.10;58.50;;;;;;5013057;28;20025;-72
2021/01/18 12:42:54;;;;;;;26.48;15.02;;;7.20;58.70;;;;;;5035385;28;20033;-72
2021/01/18 12:45:20;;;;;;;26.08;15.57;;;7.30;58.60;;;;;;5035282;28;20064;-71
2021/01/18 12:47:46;;;;;;;25.63;15.70;;;7.30;58.70;;;;;;5033493;28;20503;-71
2021/01/18 12:50:12;;;;;;;26.40;15.90;;;7.40;58.60;;;;;;5043829;28;20052;-71
2021/01/18 12:52:42;;;;;;;26.65;14.95;;;7.50;58.30;;;;;;5053064;28;20037;-71
2021/01/18 12:55:09;;;;;;;25.48;15.02;;;7.50;58.20;;;;;;5053197;28;20083;-72
2021/01/18 12:57:35;;;;;;;26.83;16.33;;;7.60;58.20;;;;;;5052896;28;20569;-73
2021/01/18 13:00:01;;;;;;;29.10;16.92;;;7.60;58.10;;;;;;5053347;28;20048;-72
2021/01/18 13:02:27;;;;;;;28.77;17.58;;;7.60;57.80;;;;;;5053093;28;20084;-73
2021/01/18 13:04:53;;;;;;;31.33;17.13;;;7.60;57.70;;;;;;5034846;28;20029;-71